Kazan', Russia
Current Conditions -  °F | °C
As of 2:30 AM on Saturday 25 Oct 2014 (Local Time) from UWKD Reporting Station
Light Snow Light Snow  
Wind Chill:   Ceiling: 4500
Heat Index: 18°   Visibility: 6mi
Dew Point: 14°   Wind: 16mph
Humidity: 86%   Direction: 320°NW
Pressure: 30.3"   Gusts: NA
Location:  55.75°N, 49.13°E
Report Text: UWKD 242330Z 32007MPS 9999 -SN OVC045 M08/M10 Q1026 R29/4/0350NOSIG RMK QFE758/1011
Loading
Personal Weather Stations






























Interactive Weather Map
Tropical Storm Tracking
New forecast layout! Learn more

10-Day Weather Forecast

Advertisements
Track Severe Weather on mobile